Time;durP1;ratioP1;P1;durP2;ratioP2;P2;SDS_P1;SDS_P2;PMS_P1;PMS_P2;Temp;Humidity;BMP_temperature;BMP_pressure;BME280_temperature;BME280_humidity;BME280_pressure;Samples;Min_cycle;Max_cycle;Signal;HPM_P1;HPM_P2
2023/07/02 00:00:46;;;;;;;4.63;1.27;;;;;;;;;;5060876;28;20060;-67
2023/07/02 00:03:14;;;;;;;4.47;1.42;;;;;;;;;;5053080;28;20044;-67
2023/07/02 00:05:43;;;;;;;2.05;1.15;;;;;;;;;;5057574;28;20623;-67
2023/07/02 00:08:11;;;;;;;3.10;1.50;;;;;;;;;;5055754;28;20177;-67
2023/07/02 00:10:41;;;;;;;2.22;1.60;;;;;;;;;;5056746;28;20122;-67
2023/07/02 00:13:10;;;;;;;2.13;1.25;;;;;;;;;;5059978;28;20131;-68
2023/07/02 00:15:38;;;;;;;2.30;1.20;;;;;;;;;;5058732;28;20505;-66
2023/07/02 00:18:06;;;;;;;2.33;1.55;;;;;;;;;;5053347;28;20076;-66
2023/07/02 00:20:37;;;;;;;3.80;1.35;;;;;;;;;;5058222;28;20149;-66
2023/07/02 00:23:07;;;;;;;1.90;1.30;;;;;;;;;;5057142;28;20045;-66
2023/07/02 00:25:36;;;;;;;2.53;1.23;;;;;;;;;;5060284;28;20186;-66
2023/07/02 00:28:05;;;;;;;2.60;1.30;;;;;;;;;;5058274;28;20462;-67
2023/07/02 00:30:34;;;;;;;1.92;1.38;;;;;;;;;;5059387;28;20049;-66
2023/07/02 00:33:02;;;;;;;3.15;1.40;;;;;;;;;;5056862;28;20050;-68
2023/07/02 00:35:31;;;;;;;2.67;1.52;;;;;;;;;;5063996;28;20055;-67
2023/07/02 00:37:59;;;;;;;2.88;1.40;;;;;;;;;;5058342;28;20106;-69
2023/07/02 00:40:28;;;;;;;2.92;1.65;;;;;;;;;;5062979;28;20045;-66
2023/07/02 00:42:57;;;;;;;2.25;1.20;;;;;;;;;;5059860;28;20056;-67
2023/07/02 00:45:27;;;;;;;1.48;1.20;;;;;;;;;;5061273;28;20066;-67
2023/07/02 00:47:55;;;;;;;2.20;1.33;;;;;;;;;;5055752;28;20655;-67
2023/07/02 00:50:24;;;;;;;2.38;1.42;;;;;;;;;;5063614;28;20109;-67
2023/07/02 00:52:53;;;;;;;2.13;1.42;;;;;;;;;;5062182;28;20072;-66
2023/07/02 00:55:22;;;;;;;2.03;1.30;;;;;;;;;;5058268;28;20420;-67
2023/07/02 00:57:51;;;;;;;2.63;1.58;;;;;;;;;;5059671;28;20075;-68
2023/07/02 01:00:29;;;;;;;1.90;1.20;;;;;;;;;;5061607;28;20048;-68
2023/07/02 01:02:59;;;;;;;2.53;1.23;;;;;;;;;;5082369;23;20048;-64
2023/07/02 01:05:35;;;;;;;1.58;1.13;;;;;;;;;;5059343;28;20080;-62
2023/07/02 01:08:04;;;;;;;2.25;1.40;;;;;;;;;;5061702;28;20059;-64
2023/07/02 01:10:35;;;;;;;1.50;1.13;;;;;;;;;;5060374;28;20445;-63
2023/07/02 01:13:07;;;;;;;2.00;1.02;;;;;;;;;;5061955;28;20128;-62
2023/07/02 01:15:36;;;;;;;1.58;1.00;;;;;;;;;;5060423;28;20040;-63
2023/07/02 01:18:06;;;;;;;1.73;1.10;;;;;;;;;;5059459;28;20057;-68
2023/07/02 01:20:36;;;;;;;1.80;0.95;;;;;;;;;;5062782;28;20136;-63
2023/07/02 01:23:05;;;;;;;1.20;1.00;;;;;;;;;;5055763;28;20052;-65
2023/07/02 01:25:36;;;;;;;1.60;0.95;;;;;;;;;;5060691;28;20068;-63
2023/07/02 01:28:04;;;;;;;4.90;1.00;;;;;;;;;;5060834;28;20059;-64
2023/07/02 01:30:32;;;;;;;2.03;1.10;;;;;;;;;;5062691;28;20045;-63
2023/07/02 01:33:01;;;;;;;1.17;0.60;;;;;;;;;;5059173;28;20138;-65
2023/07/02 01:35:29;;;;;;;1.20;0.90;;;;;;;;;;5060592;28;20572;-64
2023/07/02 01:37:59;;;;;;;1.20;0.70;;;;;;;;;;5061801;28;20076;-63
2023/07/02 01:40:27;;;;;;;1.52;0.80;;;;;;;;;;5062142;28;20110;-64
2023/07/02 01:42:55;;;;;;;1.50;0.90;;;;;;;;;;5058375;28;20729;-65
2023/07/02 01:45:24;;;;;;;1.15;0.80;;;;;;;;;;5059441;28;20529;-65
2023/07/02 01:47:52;;;;;;;2.13;0.90;;;;;;;;;;5058451;28;20055;-65
2023/07/02 01:50:21;;;;;;;1.27;0.90;;;;;;;;;;5060911;28;20054;-63
2023/07/02 01:52:49;;;;;;;1.92;0.70;;;;;;;;;;5061052;28;20056;-68
2023/07/02 01:55:19;;;;;;;1.40;0.80;;;;;;;;;;5059343;28;20102;-68
2023/07/02 01:57:47;;;;;;;1.67;0.82;;;;;;;;;;5061516;28;20076;-67
2023/07/02 02:00:17;;;;;;;0.95;0.63;;;;;;;;;;5058589;28;20072;-63
2023/07/02 02:02:45;;;;;;;2.17;0.95;;;;;;;;;;5059515;28;20084;-63
2023/07/02 02:05:14;;;;;;;1.15;0.80;;;;;;;;;;5061485;28;20048;-62
2023/07/02 02:07:42;;;;;;;1.05;0.70;;;;;;;;;;5061642;28;20076;-62
2023/07/02 02:10:11;;;;;;;1.27;0.82;;;;;;;;;;5054915;28;20206;-63
2023/07/02 02:12:41;;;;;;;1.00;0.65;;;;;;;;;;5061212;28;20045;-63
2023/07/02 02:15:10;;;;;;;1.83;0.95;;;;;;;;;;5061564;28;20567;-62
2023/07/02 02:17:39;;;;;;;1.35;0.80;;;;;;;;;;5063092;28;20080;-62
2023/07/02 02:20:09;;;;;;;1.48;0.98;;;;;;;;;;5060826;28;20083;-67
2023/07/02 02:22:37;;;;;;;2.53;1.00;;;;;;;;;;5061146;28;20048;-64
2023/07/02 02:25:06;;;;;;;1.40;0.70;;;;;;;;;;5050589;28;20060;-64
2023/07/02 02:27:34;;;;;;;2.40;0.82;;;;;;;;;;5059522;28;20048;-64
2023/07/02 02:30:04;;;;;;;1.45;0.70;;;;;;;;;;5056490;28;20191;-63
2023/07/02 02:32:32;;;;;;;5.70;0.98;;;;;;;;;;5060313;28;20040;-63
2023/07/02 02:35:01;;;;;;;2.30;1.10;;;;;;;;;;5058468;28;20082;-63
2023/07/02 02:37:29;;;;;;;3.35;1.00;;;;;;;;;;5058450;28;20048;-65
2023/07/02 02:39:58;;;;;;;1.15;0.80;;;;;;;;;;5061034;28;20098;-63
2023/07/02 02:42:26;;;;;;;1.35;0.90;;;;;;;;;;5058130;28;20554;-63
2023/07/02 02:44:55;;;;;;;1.35;0.80;;;;;;;;;;5057649;28;20512;-62
2023/07/02 02:47:25;;;;;;;0.82;0.70;;;;;;;;;;5060300;28;20041;-63
2023/07/02 02:49:53;;;;;;;1.25;0.95;;;;;;;;;;5060352;28;20048;-63
2023/07/02 02:52:21;;;;;;;1.83;0.88;;;;;;;;;;5057739;28;20072;-68
2023/07/02 02:54:52;;;;;;;2.35;0.80;;;;;;;;;;5057779;28;20048;-65
2023/07/02 02:57:21;;;;;;;1.15;0.77;;;;;;;;;;5056852;28;20504;-62
2023/07/02 02:59:49;;;;;;;1.10;0.70;;;;;;;;;;5058016;28;20492;-63
2023/07/02 03:02:18;;;;;;;1.13;0.90;;;;;;;;;;5055409;28;20155;-64
2023/07/02 03:04:49;;;;;;;1.92;1.10;;;;;;;;;;5057101;28;20044;-66
2023/07/02 03:07:17;;;;;;;1.33;1.00;;;;;;;;;;5057474;28;20041;-63
2023/07/02 03:09:46;;;;;;;0.82;0.73;;;;;;;;;;5057183;28;20061;-65
2023/07/02 03:12:14;;;;;;;1.92;0.85;;;;;;;;;;5056909;28;20117;-64
2023/07/02 03:14:43;;;;;;;1.13;0.70;;;;;;;;;;5057612;28;20053;-64
2023/07/02 03:17:11;;;;;;;3.90;1.05;;;;;;;;;;5054979;28;20164;-64
2023/07/02 03:19:39;;;;;;;2.10;1.02;;;;;;;;;;5059042;28;20465;-63
2023/07/02 03:22:09;;;;;;;2.45;1.15;;;;;;;;;;5060922;28;20161;-63
2023/07/02 03:24:37;;;;;;;2.08;1.33;;;;;;;;;;5059932;28;20040;-62
2023/07/02 03:27:06;;;;;;;2.00;1.00;;;;;;;;;;5056908;28;20139;-68
2023/07/02 03:29:35;;;;;;;2.58;1.48;;;;;;;;;;5056244;28;20048;-66
2023/07/02 03:32:04;;;;;;;2.08;1.10;;;;;;;;;;5056245;28;20056;-64
2023/07/02 03:34:32;;;;;;;1.45;1.10;;;;;;;;;;5053496;28;20056;-64
2023/07/02 03:37:01;;;;;;;5.18;1.55;;;;;;;;;;5060545;28;20131;-69
2023/07/02 03:39:30;;;;;;;4.05;1.70;;;;;;;;;;5057673;28;20098;-64
2023/07/02 03:41:59;;;;;;;1.85;1.08;;;;;;;;;;5056602;28;20486;-66
2023/07/02 03:44:27;;;;;;;1.90;1.25;;;;;;;;;;5059941;28;20825;-63
2023/07/02 03:46:55;;;;;;;3.13;1.42;;;;;;;;;;5058882;28;20041;-63
2023/07/02 03:49:24;;;;;;;1.88;1.10;;;;;;;;;;5058703;28;20087;-63
2023/07/02 03:51:52;;;;;;;1.80;1.05;;;;;;;;;;5054555;28;20131;-65
2023/07/02 03:54:21;;;;;;;1.95;1.20;;;;;;;;;;5059800;28;20543;-66
2023/07/02 03:56:50;;;;;;;3.22;1.25;;;;;;;;;;5058623;28;20048;-64
2023/07/02 03:59:19;;;;;;;3.28;1.50;;;;;;;;;;5052728;28;20518;-64
2023/07/02 04:01:47;;;;;;;5.18;1.33;;;;;;;;;;5057748;28;20098;-66
2023/07/02 04:04:16;;;;;;;2.85;1.40;;;;;;;;;;5059023;28;20056;-63
2023/07/02 04:06:44;;;;;;;1.30;1.00;;;;;;;;;;5059437;28;20570;-63
2023/07/02 04:09:14;;;;;;;1.98;1.02;;;;;;;;;;5060635;28;20052;-66
2023/07/02 04:11:42;;;;;;;2.95;1.30;;;;;;;;;;5062976;28;20086;-65
2023/07/02 04:14:12;;;;;;;2.20;1.20;;;;;;;;;;5062880;28;20485;-64
2023/07/02 04:16:40;;;;;;;2.15;1.33;;;;;;;;;;5058641;28;20049;-68
2023/07/02 04:19:09;;;;;;;2.53;1.38;;;;;;;;;;5063644;28;20139;-63
2023/07/02 04:21:37;;;;;;;2.33;1.25;;;;;;;;;;5061868;28;20068;-64
2023/07/02 04:24:06;;;;;;;2.78;1.58;;;;;;;;;;5062945;28;20582;-63
2023/07/02 04:26:36;;;;;;;2.33;1.30;;;;;;;;;;5059536;28;20083;-69
2023/07/02 04:29:26;;;;;;;2.60;1.38;;;;;;;;;;5059478;28;20421;-66
2023/07/02 04:31:54;;;;;;;2.90;1.38;;;;;;;;;;5060927;28;20110;-65
2023/07/02 04:34:23;;;;;;;3.55;1.50;;;;;;;;;;5058343;28;20048;-64
2023/07/02 04:36:51;;;;;;;2.75;1.30;;;;;;;;;;5062618;28;20075;-63
2023/07/02 04:39:21;;;;;;;2.28;1.33;;;;;;;;;;5063260;28;20052;-63
2023/07/02 04:41:52;;;;;;;3.50;1.40;;;;;;;;;;5059452;28;20051;-63
2023/07/02 04:44:21;;;;;;;2.72;1.35;;;;;;;;;;5057131;28;20048;-64
2023/07/02 04:46:51;;;;;;;3.25;1.35;;;;;;;;;;5063053;28;20052;-63
2023/07/02 04:49:20;;;;;;;1.80;1.42;;;;;;;;;;5058615;28;20802;-63
2023/07/02 04:51:48;;;;;;;3.70;1.40;;;;;;;;;;5059765;28;20106;-64
2023/07/02 04:54:16;;;;;;;6.15;1.50;;;;;;;;;;5055851;28;20753;-63
2023/07/02 04:56:45;;;;;;;2.97;1.85;;;;;;;;;;5061031;28;20218;-65
2023/07/02 04:59:13;;;;;;;3.40;1.60;;;;;;;;;;5060490;28;20168;-63
2023/07/02 05:01:41;;;;;;;2.72;1.33;;;;;;;;;;5059089;28;20125;-63
2023/07/02 05:04:12;;;;;;;2.05;1.50;;;;;;;;;;5058912;28;20153;-64
2023/07/02 05:06:40;;;;;;;1.70;1.20;;;;;;;;;;5051633;28;20060;-64
2023/07/02 05:09:09;;;;;;;3.78;1.38;;;;;;;;;;5061567;28;20464;-65
2023/07/02 05:11:37;;;;;;;2.05;1.30;;;;;;;;;;5058435;28;20442;-67
2023/07/02 05:14:05;;;;;;;3.00;1.35;;;;;;;;;;5062915;28;20076;-66
2023/07/02 05:16:34;;;;;;;2.35;1.52;;;;;;;;;;5062349;28;20053;-64
2023/07/02 05:19:02;;;;;;;2.60;1.52;;;;;;;;;;5058450;28;20044;-64
2023/07/02 05:21:32;;;;;;;3.20;1.45;;;;;;;;;;5057841;28;20048;-64
2023/07/02 05:24:00;;;;;;;2.95;1.25;;;;;;;;;;5057583;28;20060;-63
2023/07/02 05:26:29;;;;;;;4.63;1.60;;;;;;;;;;5060916;28;20193;-63
2023/07/02 05:28:57;;;;;;;2.40;1.23;;;;;;;;;;5063491;28;20455;-63
2023/07/02 05:31:25;;;;;;;2.97;1.70;;;;;;;;;;5061071;28;20048;-67
2023/07/02 05:33:54;;;;;;;1.65;1.17;;;;;;;;;;5056271;28;20561;-67
2023/07/02 05:36:23;;;;;;;5.07;1.50;;;;;;;;;;5059777;28;20070;-63
2023/07/02 05:38:52;;;;;;;8.10;1.73;;;;;;;;;;5060573;28;20056;-63
2023/07/02 05:41:21;;;;;;;2.53;1.33;;;;;;;;;;5060720;28;20086;-65
2023/07/02 05:43:49;;;;;;;2.15;1.42;;;;;;;;;;5058704;28;20473;-64
2023/07/02 05:46:18;;;;;;;3.17;1.52;;;;;;;;;;5058666;28;20153;-64
2023/07/02 05:48:46;;;;;;;1.98;1.25;;;;;;;;;;5059879;28;20049;-63
2023/07/02 05:51:14;;;;;;;2.17;1.20;;;;;;;;;;5063058;28;20084;-63
2023/07/02 05:53:43;;;;;;;2.80;1.30;;;;;;;;;;5059132;28;20167;-64
2023/07/02 05:56:12;;;;;;;3.78;1.80;;;;;;;;;;5063443;28;20048;-63
2023/07/02 05:58:41;;;;;;;3.85;1.70;;;;;;;;;;5063621;28;20056;-64
2023/07/02 06:01:15;;;;;;;2.25;1.20;;;;;;;;;;5057321;28;20141;-64
2023/07/02 06:03:45;;;;;;;3.38;1.85;;;;;;;;;;5054447;28;20056;-65
2023/07/02 06:06:14;;;;;;;2.15;1.58;;;;;;;;;;5059904;28;20048;-65
2023/07/02 06:08:42;;;;;;;6.78;1.80;;;;;;;;;;5058071;28;20175;-67
2023/07/02 06:11:12;;;;;;;2.20;1.33;;;;;;;;;;5058793;28;20519;-65
2023/07/02 06:13:40;;;;;;;3.88;1.45;;;;;;;;;;5056603;28;20497;-68
2023/07/02 06:16:09;;;;;;;2.72;1.55;;;;;;;;;;5050675;28;20159;-67
2023/07/02 06:18:37;;;;;;;2.78;1.20;;;;;;;;;;5053636;28;20068;-64
2023/07/02 06:21:06;;;;;;;2.75;1.63;;;;;;;;;;5056125;28;20074;-63
2023/07/02 06:23:41;;;;;;;4.95;1.45;;;;;;;;;;5052960;28;20418;-69
2023/07/02 06:26:09;;;;;;;2.60;1.70;;;;;;;;;;5053967;28;20516;-63
2023/07/02 06:28:39;;;;;;;4.32;1.63;;;;;;;;;;5051685;28;20076;-69
2023/07/02 06:31:08;;;;;;;5.43;1.38;;;;;;;;;;5058379;28;20365;-63
2023/07/02 06:33:40;;;;;;;2.85;1.88;;;;;;;;;;5054583;28;20045;-63
2023/07/02 06:36:08;;;;;;;2.72;1.52;;;;;;;;;;5057983;28;20113;-67
2023/07/02 06:38:40;;;;;;;5.38;1.35;;;;;;;;;;5054975;28;20044;-64
2023/07/02 06:41:08;;;;;;;2.75;1.58;;;;;;;;;;5057431;28;20053;-63
2023/07/02 06:43:37;;;;;;;3.13;1.73;;;;;;;;;;5057254;28;20067;-65
2023/07/02 06:46:07;;;;;;;3.17;1.60;;;;;;;;;;5052893;28;20059;-62
2023/07/02 06:48:36;;;;;;;1.70;1.35;;;;;;;;;;5051154;28;20056;-65
2023/07/02 06:51:04;;;;;;;4.07;1.95;;;;;;;;;;5057269;28;20141;-67
2023/07/02 06:53:32;;;;;;;3.00;1.73;;;;;;;;;;5056815;28;20137;-65
2023/07/02 06:56:01;;;;;;;3.83;1.52;;;;;;;;;;5055357;28;20052;-65
2023/07/02 06:58:29;;;;;;;2.53;1.52;;;;;;;;;;5057137;28;20143;-63
2023/07/02 07:00:57;;;;;;;3.58;1.80;;;;;;;;;;5055843;28;20106;-63
2023/07/02 07:03:27;;;;;;;2.28;1.55;;;;;;;;;;5050111;28;20099;-67
2023/07/02 07:05:56;;;;;;;2.65;1.40;;;;;;;;;;5059084;28;20133;-67
2023/07/02 07:08:24;;;;;;;4.43;1.65;;;;;;;;;;5055393;28;20088;-66
2023/07/02 07:10:52;;;;;;;3.88;1.52;;;;;;;;;;5056918;28;20041;-63
2023/07/02 07:13:21;;;;;;;3.55;1.65;;;;;;;;;;5055451;28;20545;-63
2023/07/02 07:15:49;;;;;;;3.60;1.67;;;;;;;;;;5056958;28;20084;-66
2023/07/02 07:18:18;;;;;;;5.15;1.58;;;;;;;;;;5054224;28;20097;-64
2023/07/02 07:20:48;;;;;;;3.10;2.20;;;;;;;;;;5055188;28;20056;-64
2023/07/02 07:23:18;;;;;;;4.10;1.70;;;;;;;;;;5055393;28;20072;-65
2023/07/02 07:25:46;;;;;;;4.20;1.60;;;;;;;;;;5053174;28;20154;-65
2023/07/02 07:28:16;;;;;;;2.47;1.77;;;;;;;;;;5056141;28;20140;-64
2023/07/02 07:30:45;;;;;;;3.22;1.83;;;;;;;;;;5056373;28;20048;-63
2023/07/02 07:33:15;;;;;;;2.42;1.50;;;;;;;;;;5050293;28;20052;-63
2023/07/02 07:35:43;;;;;;;3.50;1.45;;;;;;;;;;5056261;28;20073;-63
2023/07/02 07:38:14;;;;;;;2.78;1.50;;;;;;;;;;5053089;28;20044;-61
2023/07/02 07:40:44;;;;;;;3.65;1.58;;;;;;;;;;5057127;28;20402;-66
2023/07/02 07:43:12;;;;;;;3.67;1.80;;;;;;;;;;5055892;28;20098;-62
2023/07/02 07:45:41;;;;;;;6.68;1.90;;;;;;;;;;5053278;28;20130;-62
2023/07/02 07:48:09;;;;;;;3.03;1.38;;;;;;;;;;5055276;28;20056;-62
2023/07/02 07:50:38;;;;;;;3.00;1.92;;;;;;;;;;5049368;28;20041;-65
2023/07/02 07:53:06;;;;;;;4.18;2.05;;;;;;;;;;5053664;28;20116;-62
2023/07/02 07:55:36;;;;;;;3.20;1.77;;;;;;;;;;5051726;28;20049;-63
2023/07/02 07:58:04;;;;;;;3.00;1.55;;;;;;;;;;5051866;28;20052;-63
2023/07/02 08:00:33;;;;;;;3.67;1.63;;;;;;;;;;5050415;28;20567;-61
2023/07/02 08:03:02;;;;;;;4.43;1.55;;;;;;;;;;5054447;28;20391;-62
2023/07/02 08:05:31;;;;;;;3.70;1.83;;;;;;;;;;5056301;28;20052;-63
2023/07/02 08:07:59;;;;;;;3.15;1.85;;;;;;;;;;5047157;28;20072;-62
2023/07/02 08:10:28;;;;;;;3.00;1.88;;;;;;;;;;5053103;28;20083;-63
2023/07/02 08:12:58;;;;;;;4.28;2.38;;;;;;;;;;5055325;28;20048;-65
2023/07/02 08:15:26;;;;;;;3.13;1.60;;;;;;;;;;5053740;28;20501;-62
2023/07/02 08:17:57;;;;;;;3.08;1.70;;;;;;;;;;5056788;28;20052;-63
2023/07/02 08:20:25;;;;;;;2.58;1.30;;;;;;;;;;5053968;28;20109;-64
2023/07/02 08:22:54;;;;;;;3.35;1.80;;;;;;;;;;5053121;28;20076;-63
2023/07/02 08:25:22;;;;;;;3.35;1.77;;;;;;;;;;5050752;28;20200;-63
2023/07/02 08:27:51;;;;;;;2.30;1.80;;;;;;;;;;5055708;28;20045;-62
2023/07/02 08:30:21;;;;;;;2.88;1.88;;;;;;;;;;5053110;28;20568;-62
2023/07/02 08:32:49;;;;;;;2.28;1.45;;;;;;;;;;5055833;28;20557;-67
2023/07/02 08:35:18;;;;;;;6.57;1.83;;;;;;;;;;5051186;28;20151;-62
2023/07/02 08:37:46;;;;;;;2.88;1.65;;;;;;;;;;5045487;28;20106;-64
2023/07/02 08:40:18;;;;;;;3.13;1.60;;;;;;;;;;5055935;28;20562;-62
2023/07/02 08:42:47;;;;;;;5.63;1.88;;;;;;;;;;5051090;28;20051;-64
2023/07/02 08:45:16;;;;;;;2.55;1.40;;;;;;;;;;5053879;28;20048;-62
2023/07/02 08:47:47;;;;;;;3.53;1.40;;;;;;;;;;5061505;28;21572;-63
2023/07/02 08:50:16;;;;;;;1.77;1.20;;;;;;;;;;5054844;28;20048;-65
2023/07/02 08:52:45;;;;;;;2.30;1.27;;;;;;;;;;5058361;28;20459;-62
2023/07/02 08:55:13;;;;;;;1.73;1.38;;;;;;;;;;5058502;28;20041;-62
2023/07/02 08:57:43;;;;;;;2.08;1.23;;;;;;;;;;5063628;28;20523;-65
2023/07/02 09:00:12;;;;;;;4.22;1.35;;;;;;;;;;5061610;28;20086;-63
2023/07/02 09:02:40;;;;;;;2.42;1.33;;;;;;;;;;5062632;28;20114;-63
2023/07/02 09:05:10;;;;;;;2.50;1.70;;;;;;;;;;5063606;28;20044;-66
2023/07/02 09:07:46;;;;;;;3.10;1.33;;;;;;;;;;5061336;28;20044;-62
2023/07/02 09:10:14;;;;;;;2.08;1.55;;;;;;;;;;5063132;28;20044;-62
2023/07/02 09:12:43;;;;;;;2.33;1.38;;;;;;;;;;5060930;28;20041;-65
2023/07/02 09:15:11;;;;;;;2.78;1.23;;;;;;;;;;5054735;28;21400;-64
2023/07/02 09:17:39;;;;;;;5.18;1.70;;;;;;;;;;5061141;28;20099;-62
2023/07/02 09:20:09;;;;;;;1.92;1.27;;;;;;;;;;5060357;28;20045;-62
2023/07/02 09:22:39;;;;;;;4.95;1.40;;;;;;;;;;5053298;28;20481;-63
2023/07/02 09:25:08;;;;;;;2.22;1.42;;;;;;;;;;5055285;28;20507;-63
2023/07/02 09:27:37;;;;;;;2.75;1.50;;;;;;;;;;5057951;28;20649;-62
2023/07/02 09:30:09;;;;;;;3.90;1.52;;;;;;;;;;5055763;28;20109;-62
2023/07/02 09:32:38;;;;;;;3.30;1.40;;;;;;;;;;5058992;28;20044;-62
2023/07/02 09:35:07;;;;;;;3.75;1.63;;;;;;;;;;5059577;28;20475;-62
2023/07/02 09:37:36;;;;;;;1.55;1.15;;;;;;;;;;5060399;28;20114;-62
2023/07/02 09:40:07;;;;;;;2.30;1.10;;;;;;;;;;5055829;28;20394;-63
2023/07/02 09:42:35;;;;;;;1.80;1.30;;;;;;;;;;5059097;28;20130;-62
2023/07/02 09:45:07;;;;;;;2.75;1.35;;;;;;;;;;5055310;28;20080;-63
2023/07/02 09:47:36;;;;;;;1.65;1.30;;;;;;;;;;5046274;28;20053;-62
2023/07/02 09:50:06;;;;;;;1.92;1.50;;;;;;;;;;5051792;28;20044;-64
2023/07/02 09:52:35;;;;;;;2.40;1.38;;;;;;;;;;5061914;28;20044;-63
2023/07/02 09:55:04;;;;;;;2.72;1.30;;;;;;;;;;5059610;28;20071;-62
2023/07/02 09:57:34;;;;;;;2.70;1.60;;;;;;;;;;5057181;28;20048;-63
2023/07/02 10:00:07;;;;;;;2.47;1.52;;;;;;;;;;5060850;28;20079;-62
2023/07/02 10:02:36;;;;;;;2.90;1.48;;;;;;;;;;5060769;28;20048;-65
2023/07/02 10:05:05;;;;;;;3.38;1.90;;;;;;;;;;5057079;28;20071;-67
2023/07/02 10:07:33;;;;;;;2.17;1.42;;;;;;;;;;5059268;28;20582;-67
2023/07/02 10:10:02;;;;;;;3.92;1.80;;;;;;;;;;5058507;28;20041;-62
2023/07/02 10:12:31;;;;;;;5.65;2.15;;;;;;;;;;5060625;28;20045;-63
2023/07/02 10:15:01;;;;;;;4.22;2.17;;;;;;;;;;5060461;28;20045;-65
2023/07/02 10:17:30;;;;;;;4.38;2.13;;;;;;;;;;5058777;28;20728;-69
2023/07/02 10:20:00;;;;;;;4.15;2.13;;;;;;;;;;5062523;28;20090;-63
2023/07/02 10:22:29;;;;;;;3.30;1.70;;;;;;;;;;5058881;28;20055;-62
2023/07/02 10:24:59;;;;;;;4.70;2.00;;;;;;;;;;5054006;28;21980;-63
2023/07/02 10:27:35;;;;;;;3.60;2.20;;;;;;;;;;5055216;28;20139;-64
2023/07/02 10:30:04;;;;;;;;;;;;;;;;;;5060605;28;20113;-68
2023/07/02 10:32:34;;;;;;;4.32;2.30;;;;;;;;;;5062324;28;19924;-63
2023/07/02 10:35:04;;;;;;;4.18;1.92;;;;;;;;;;5058019;28;20273;-66
2023/07/02 10:37:38;;;;;;;5.43;2.28;;;;;;;;;;5060500;28;20495;-64
2023/07/02 10:40:09;;;;;;;3.28;1.80;;;;;;;;;;5060357;28;20106;-63
2023/07/02 10:42:46;;;;;;;3.20;1.95;;;;;;;;;;5060347;28;20059;-62
2023/07/02 10:45:15;;;;;;;5.22;2.17;;;;;;;;;;5058332;28;20678;-61
2023/07/02 10:47:45;;;;;;;7.00;2.30;;;;;;;;;;5060137;28;20048;-61
2023/07/02 10:50:17;;;;;;;3.90;2.25;;;;;;;;;;5059426;28;20354;-62
2023/07/02 10:52:46;;;;;;;4.50;2.60;;;;;;;;;;5058722;28;20048;-62
2023/07/02 10:55:18;;;;;;;7.63;3.20;;;;;;;;;;5058182;28;20077;-63
2023/07/02 10:57:46;;;;;;;5.18;2.65;;;;;;;;;;5059595;28;20052;-64
2023/07/02 11:00:15;;;;;;;7.88;2.65;;;;;;;;;;5059621;28;20540;-63
2023/07/02 11:02:45;;;;;;;5.75;2.72;;;;;;;;;;5060680;28;20052;-62
2023/07/02 11:05:16;;;;;;;5.22;2.70;;;;;;;;;;5060181;28;20404;-66
2023/07/02 11:07:45;;;;;;;3.88;2.40;;;;;;;;;;5059993;28;20052;-63
2023/07/02 11:10:20;;;;;;;6.15;3.00;;;;;;;;;;5062672;28;20398;-62
2023/07/02 11:12:48;;;;;;;6.15;2.72;;;;;;;;;;5053412;28;20506;-64
2023/07/02 11:15:18;;;;;;;7.07;2.90;;;;;;;;;;5058736;28;20489;-62
2023/07/02 11:17:48;;;;;;;6.32;2.92;;;;;;;;;;5060775;28;20508;-63
2023/07/02 11:20:17;;;;;;;5.78;2.92;;;;;;;;;;5059364;28;20098;-64
2023/07/02 11:22:47;;;;;;;9.15;2.83;;;;;;;;;;5059395;28;20044;-61
2023/07/02 11:25:17;;;;;;;7.45;2.78;;;;;;;;;;5060049;28;20044;-62
2023/07/02 11:27:45;;;;;;;5.13;3.13;;;;;;;;;;5060161;28;20079;-63
2023/07/02 11:30:14;;;;;;;6.90;2.80;;;;;;;;;;5059557;28;20129;-62
2023/07/02 11:32:50;;;;;;;8.13;3.60;;;;;;;;;;5060570;28;20136;-62
2023/07/02 11:35:19;;;;;;;8.93;3.95;;;;;;;;;;5058174;28;20413;-62
2023/07/02 11:37:48;;;;;;;7.72;3.63;;;;;;;;;;5058915;28;20044;-62
2023/07/02 11:40:19;;;;;;;9.15;4.25;;;;;;;;;;5059984;28;20048;-62
2023/07/02 11:42:48;;;;;;;11.45;4.60;;;;;;;;;;5059828;28;20063;-67
2023/07/02 11:45:16;;;;;;;8.70;4.43;;;;;;;;;;5060796;28;21452;-62
2023/07/02 11:47:44;;;;;;;10.77;4.97;;;;;;;;;;5056504;28;20522;-62
2023/07/02 11:50:14;;;;;;;10.45;4.47;;;;;;;;;;5059741;28;20516;-63
2023/07/02 11:52:54;;;;;;;8.60;4.47;;;;;;;;;;5053336;28;20048;-62
2023/07/02 11:55:22;;;;;;;9.60;4.40;;;;;;;;;;5059300;28;20066;-64
2023/07/02 11:57:51;;;;;;;10.50;4.65;;;;;;;;;;5058623;28;20056;-62
2023/07/02 12:00:19;;;;;;;10.93;5.20;;;;;;;;;;5059199;28;20102;-64
2023/07/02 12:02:48;;;;;;;11.65;5.28;;;;;;;;;;5059926;28;20052;-62
2023/07/02 12:05:18;;;;;;;9.18;4.93;;;;;;;;;;5057357;28;20053;-62
2023/07/02 12:07:46;;;;;;;10.63;5.05;;;;;;;;;;5059052;28;20053;-66
2023/07/02 12:10:14;;;;;;;10.73;5.10;;;;;;;;;;5059249;28;20505;-64
2023/07/02 12:12:43;;;;;;;10.57;5.07;;;;;;;;;;5056221;28;20060;-62
2023/07/02 12:15:11;;;;;;;10.95;5.47;;;;;;;;;;5059565;28;20425;-62
2023/07/02 12:17:40;;;;;;;10.45;5.13;;;;;;;;;;5058059;28;20048;-62
2023/07/02 12:20:08;;;;;;;11.23;5.32;;;;;;;;;;5057943;28;20044;-62
2023/07/02 12:22:38;;;;;;;13.60;5.32;;;;;;;;;;5057088;28;20051;-62
2023/07/02 12:25:07;;;;;;;13.50;5.75;;;;;;;;;;5053836;28;20090;-62
2023/07/02 12:27:38;;;;;;;12.05;5.47;;;;;;;;;;5056603;28;20049;-63
2023/07/02 12:30:08;;;;;;;11.43;4.95;;;;;;;;;;5060899;28;20525;-63
2023/07/02 12:32:36;;;;;;;11.63;5.18;;;;;;;;;;5059944;28;20461;-62
2023/07/02 12:35:05;;;;;;;9.18;4.75;;;;;;;;;;5058152;28;20052;-62
2023/07/02 12:37:33;;;;;;;11.25;5.05;;;;;;;;;;5059947;28;20162;-61
2023/07/02 12:40:04;;;;;;;12.73;5.85;;;;;;;;;;5058370;28;20049;-63
2023/07/02 12:42:32;;;;;;;19.80;6.15;;;;;;;;;;5056315;28;20603;-64
2023/07/02 12:45:00;;;;;;;15.43;5.85;;;;;;;;;;5058337;28;20060;-63
2023/07/02 12:47:29;;;;;;;11.45;5.47;;;;;;;;;;5059828;28;20051;-61
2023/07/02 12:49:57;;;;;;;11.98;5.57;;;;;;;;;;5059854;28;22655;-62
2023/07/02 12:52:25;;;;;;;13.65;5.78;;;;;;;;;;5061458;28;20139;-67
2023/07/02 12:54:54;;;;;;;15.27;7.13;;;;;;;;;;5059095;28;20044;-66
2023/07/02 12:57:24;;;;;;;22.00;7.72;;;;;;;;;;5058370;28;20056;-65
2023/07/02 12:59:52;;;;;;;12.38;6.20;;;;;;;;;;5061924;28;20109;-62
2023/07/02 13:02:22;;;;;;;16.13;6.55;;;;;;;;;;5056994;28;20552;-61
2023/07/02 13:04:50;;;;;;;12.55;6.07;;;;;;;;;;5059850;28;20556;-62
2023/07/02 13:07:19;;;;;;;12.98;6.28;;;;;;;;;;5056329;28;20063;-64
2023/07/02 13:09:47;;;;;;;12.57;6.60;;;;;;;;;;5058114;28;20044;-67
2023/07/02 13:12:16;;;;;;;13.98;5.90;;;;;;;;;;5058960;28;20131;-62
2023/07/02 13:14:45;;;;;;;18.52;7.03;;;;;;;;;;5057939;28;20118;-68
2023/07/02 13:17:14;;;;;;;14.80;6.70;;;;;;;;;;5056806;28;20098;-66
2023/07/02 13:19:42;;;;;;;17.15;6.68;;;;;;;;;;5062575;28;20514;-63
2023/07/02 13:22:11;;;;;;;16.08;6.97;;;;;;;;;;5052126;28;20044;-62
2023/07/02 13:24:40;;;;;;;12.88;6.60;;;;;;;;;;5042415;28;20161;-61
2023/07/02 13:27:11;;;;;;;14.75;7.40;;;;;;;;;;5056381;28;20045;-62
2023/07/02 13:29:40;;;;;;;13.98;6.70;;;;;;;;;;5058387;28;20110;-62
2023/07/02 13:32:11;;;;;;;12.23;6.57;;;;;;;;;;5055033;28;20040;-62
2023/07/02 13:34:39;;;;;;;12.77;7.03;;;;;;;;;;5046985;28;20428;-65
2023/07/02 13:37:07;;;;;;;15.65;7.32;;;;;;;;;;5057089;28;20098;-62
2023/07/02 13:39:36;;;;;;;12.65;7.05;;;;;;;;;;5057232;28;20080;-63
2023/07/02 13:42:04;;;;;;;20.38;8.57;;;;;;;;;;5056106;28;20048;-62
2023/07/02 13:44:33;;;;;;;19.10;7.93;;;;;;;;;;5055021;28;20106;-62
2023/07/02 13:47:02;;;;;;;17.63;7.82;;;;;;;;;;5058355;28;20068;-62
2023/07/02 13:49:31;;;;;;;17.88;7.85;;;;;;;;;;5057608;28;20059;-64
2023/07/02 13:52:00;;;;;;;14.45;7.32;;;;;;;;;;5056920;28;20176;-62
2023/07/02 13:54:28;;;;;;;16.30;7.10;;;;;;;;;;5057881;28;20068;-67
2023/07/02 13:56:57;;;;;;;14.10;6.68;;;;;;;;;;5058666;28;20172;-65
2023/07/02 13:59:27;;;;;;;18.73;7.78;;;;;;;;;;5058213;28;20505;-64
2023/07/02 14:01:55;;;;;;;16.25;8.30;;;;;;;;;;5053313;28;20053;-63
2023/07/02 14:04:24;;;;;;;17.13;7.35;;;;;;;;;;5058130;28;20045;-66
2023/07/02 14:06:53;;;;;;;17.75;8.02;;;;;;;;;;5056982;28;20485;-61
2023/07/02 14:09:22;;;;;;;15.18;7.85;;;;;;;;;;5058355;28;20045;-64
2023/07/02 14:11:50;;;;;;;17.65;8.02;;;;;;;;;;5055584;28;20134;-62
2023/07/02 14:14:19;;;;;;;15.43;7.53;;;;;;;;;;5054581;28;20058;-63
2023/07/02 14:16:48;;;;;;;16.48;8.20;;;;;;;;;;5059318;28;20447;-62
2023/07/02 14:19:17;;;;;;;21.90;7.97;;;;;;;;;;5061967;28;20546;-63
2023/07/02 14:21:46;;;;;;;15.88;7.47;;;;;;;;;;5058096;28;20061;-64
2023/07/02 14:24:14;;;;;;;14.95;7.32;;;;;;;;;;5051615;28;20081;-63
2023/07/02 14:26:43;;;;;;;16.73;8.02;;;;;;;;;;5053456;28;20044;-63
2023/07/02 14:29:12;;;;;;;18.05;8.45;;;;;;;;;;5052609;28;20071;-63
2023/07/02 14:31:40;;;;;;;18.35;7.53;;;;;;;;;;5050192;28;20076;-63
2023/07/02 14:34:10;;;;;;;17.02;8.23;;;;;;;;;;5058414;28;20040;-64
2023/07/02 14:36:38;;;;;;;19.00;8.18;;;;;;;;;;5055109;28;20690;-62
2023/07/02 14:39:06;;;;;;;16.35;8.18;;;;;;;;;;5057717;28;20071;-62
2023/07/02 14:41:35;;;;;;;18.50;8.88;;;;;;;;;;5058291;28;20109;-63
2023/07/02 14:44:04;;;;;;;20.40;9.55;;;;;;;;;;5058718;28;20149;-66
2023/07/02 14:46:33;;;;;;;18.90;8.65;;;;;;;;;;5056130;28;20401;-64
2023/07/02 14:49:01;;;;;;;19.35;8.85;;;;;;;;;;5060264;28;20058;-63
2023/07/02 14:51:31;;;;;;;19.45;9.25;;;;;;;;;;5053824;28;20585;-66